Terminal Aerodrome Forecast
Issued by NWS

Home | Current Version | Previous Version | Text Only | Print | Product List | Glossary Off
Versions: 1 2 3 4 5 6 7 8 9 10 11 12 13 14 15 16 17

000
FTUS43 KICT 252102 AAB
TAFSLN
TAF AMD
KSLN 252102Z 2521/2618 03013KT P6SM VCTS SCT040CB BKN080
      TEMPO 2521/2601 VRB20G35KT 3SM +TSRA OVC060CB
     FM261000 18008KT P6SM BKN150=

USA.gov is the U.S. government's official web portal to all federal, state and local government web resources and services.